createdAt,value
2024-03-06T00:04:07.793Z,17.33
2024-03-06T00:09:09.529Z,17.27
2024-03-06T00:14:13.552Z,16.83
2024-03-06T00:19:15.366Z,17.75
2024-03-06T00:24:16.991Z,18.77
2024-03-06T00:29:18.576Z,19.25
2024-03-06T00:34:20.136Z,20.17
2024-03-06T00:39:21.727Z,21.70
2024-03-06T00:44:23.381Z,21.33
2024-03-06T00:49:24.943Z,20.05
2024-03-06T00:54:26.464Z,20.55
2024-03-06T00:59:28.138Z,23.35
2024-03-06T01:04:29.702Z,23.30
2024-03-06T01:09:31.334Z,21.48
2024-03-06T01:14:33.072Z,22.55
2024-03-06T01:19:34.691Z,26.42
2024-03-06T01:24:36.278Z,25.50
2024-03-06T01:29:37.838Z,24.15
2024-03-06T01:34:39.474Z,24.20
2024-03-06T01:39:41.044Z,21.67
2024-03-06T01:44:42.622Z,22.42
2024-03-06T01:49:45.395Z,21.50
2024-03-06T01:54:48.271Z,21.92
2024-03-06T01:59:49.964Z,21.50
2024-03-06T02:04:51.930Z,23.30
2024-03-06T02:09:53.505Z,21.95
2024-03-06T02:14:55.056Z,24.52
2024-03-06T02:19:56.950Z,22.83
2024-03-06T02:24:58.551Z,22.38
2024-03-06T02:30:00.165Z,22.65
2024-03-06T02:35:03.993Z,22.52
2024-03-06T02:40:08.284Z,22.58
2024-03-06T02:45:10.160Z,22.23
2024-03-06T02:50:11.791Z,21.45
2024-03-06T02:55:13.426Z,23.63
2024-03-06T03:00:17.178Z,23.67
2024-03-06T03:05:18.803Z,22.10
2024-03-06T03:10:20.396Z,23.25
2024-03-06T03:15:22.248Z,23.63
2024-03-06T03:20:23.912Z,25.52
2024-03-06T03:25:25.541Z,24.15
2024-03-06T03:30:27.097Z,23.27
2024-03-06T03:35:29.251Z,23.42
2024-03-06T03:40:30.803Z,24.98
2024-03-06T03:45:32.468Z,24.92
2024-03-06T03:50:34.257Z,24.38
2024-03-06T03:55:36.814Z,24.27
2024-03-06T04:00:39.335Z,24.85
2024-03-06T04:05:40.928Z,25.15
2024-03-06T04:10:48.478Z,24.25
2024-03-06T04:15:50.087Z,24.50
2024-03-06T04:20:51.681Z,24.15
2024-03-06T04:25:53.424Z,25.20
2024-03-06T04:30:55.050Z,24.42
2024-03-06T04:35:57.217Z,25.67
2024-03-06T04:40:58.869Z,25.67
2024-03-06T04:46:00.556Z,24.65
2024-03-06T04:51:02.668Z,26.35
2024-03-06T04:56:04.592Z,28.08
2024-03-06T05:01:06.172Z,25.88
2024-03-06T05:59:21.526Z,28.25
2024-03-06T06:04:23.085Z,26.23
2024-03-06T06:09:24.639Z,28.25
2024-03-06T06:14:28.233Z,28.75
2024-03-06T06:19:29.863Z,29.90
2024-03-06T06:24:31.884Z,28.05
2024-03-06T06:29:33.546Z,29.65
2024-03-06T06:34:35.289Z,30.98
2024-03-06T06:39:36.867Z,31.85
2024-03-06T06:44:38.444Z,30.40
2024-03-06T06:49:40.036Z,31.65
2024-03-06T06:54:41.770Z,30.50
2024-03-06T06:59:43.482Z,30.75
2024-03-06T07:04:45.117Z,31.80
2024-03-06T07:09:46.682Z,31.50
2024-03-06T07:14:48.233Z,32.13
2024-03-06T07:19:49.895Z,33.65
2024-03-06T07:24:51.499Z,30.52
2024-03-06T07:29:53.047Z,28.25
2024-03-06T07:34:54.602Z,29.00
2024-03-06T07:39:56.224Z,27.17
2024-03-06T07:44:57.804Z,26.83
2024-03-06T07:49:59.386Z,28.08
2024-03-06T07:55:01.103Z,28.33
2024-03-06T08:00:09.035Z,27.58
2024-03-06T08:05:14.455Z,28.27
2024-03-06T08:10:18.096Z,27.58
2024-03-06T08:15:19.666Z,27.95
2024-03-06T08:20:21.229Z,25.38
2024-03-06T08:25:22.856Z,25.05
2024-03-06T08:30:24.423Z,25.00
2024-03-06T08:35:26.189Z,25.33
2024-03-06T08:40:46.526Z,24.38
2024-03-06T08:45:48.191Z,22.80
2024-03-06T08:50:49.873Z,21.83
2024-03-06T08:55:51.879Z,21.83
2024-03-06T09:00:54.850Z,20.77
2024-03-06T09:05:56.511Z,19.95
2024-03-06T09:11:00.185Z,21.15
2024-03-06T09:16:01.939Z,19.67
2024-03-06T09:21:03.806Z,22.40
2024-03-06T09:26:07.084Z,20.73
2024-03-06T09:31:08.730Z,20.70
2024-03-06T09:36:15.938Z,19.02
2024-03-06T09:41:17.529Z,19.30
2024-03-06T09:46:19.090Z,17.25
2024-03-06T09:51:22.001Z,17.15
2024-03-06T09:56:23.729Z,15.98
2024-03-06T10:01:25.717Z,17.17
2024-03-06T10:06:27.922Z,17.67
2024-03-06T10:11:29.564Z,17.30
2024-03-06T10:16:31.249Z,17.65
2024-03-06T10:21:33.093Z,17.48
2024-03-06T10:26:34.699Z,17.13
2024-03-06T10:31:36.242Z,17.45
2024-03-06T10:36:38.402Z,16.85
2024-03-06T10:41:41.801Z,17.45
2024-03-06T10:46:45.796Z,18.08
2024-03-06T10:51:47.380Z,15.48
2024-03-06T10:56:48.986Z,14.30
2024-03-06T11:01:50.650Z,13.40
2024-03-06T11:06:52.265Z,12.82
2024-03-06T11:11:54.431Z,14.55
2024-03-06T11:17:01.194Z,14.80
2024-03-06T11:22:04.239Z,15.35
2024-03-06T11:27:08.978Z,15.55
2024-03-06T11:32:11.334Z,16.60
2024-03-06T11:37:13.179Z,15.23
2024-03-06T11:42:14.860Z,15.63
2024-03-06T11:47:18.508Z,13.15
2024-03-06T11:52:20.341Z,18.25
2024-03-06T11:57:24.391Z,17.58
2024-03-06T12:02:26.074Z,16.67
2024-03-06T12:07:28.647Z,19.58
2024-03-06T12:12:30.685Z,15.43
2024-03-06T12:17:32.445Z,19.58
2024-03-06T12:22:35.526Z,20.00
2024-03-06T12:27:38.641Z,20.73
2024-03-06T12:32:40.692Z,21.48
2024-03-06T12:37:42.329Z,20.83
2024-03-06T12:42:45.196Z,22.85
2024-03-06T12:47:49.026Z,22.77
2024-03-06T12:52:50.772Z,22.63
2024-03-06T12:57:52.379Z,24.20
2024-03-06T13:02:54.353Z,22.80
2024-03-06T13:07:55.994Z,23.42
2024-03-06T13:12:57.566Z,22.80
2024-03-06T13:17:59.217Z,24.35
2024-03-06T13:23:00.920Z,23.77
2024-03-06T13:28:02.960Z,23.88
2024-03-06T13:33:04.842Z,24.20
2024-03-06T13:38:06.547Z,21.17
2024-03-06T13:43:08.526Z,22.45
2024-03-06T13:48:15.568Z,22.98
2024-03-06T13:53:17.250Z,21.40
2024-03-06T13:58:18.901Z,23.52
2024-03-06T14:03:20.457Z,20.55
2024-03-06T14:08:23.496Z,21.15
2024-03-06T14:13:25.093Z,21.98
2024-03-06T14:18:27.330Z,22.48
2024-03-06T14:23:30.961Z,20.08
2024-03-06T14:28:32.583Z,22.83
2024-03-06T14:33:34.205Z,20.42
2024-03-06T14:38:35.776Z,21.48
2024-03-06T14:43:39.466Z,22.38
2024-03-06T14:48:41.743Z,25.17
2024-03-06T14:53:43.403Z,26.55
2024-03-06T14:58:45.074Z,25.75
2024-03-06T15:03:46.724Z,26.55
2024-03-06T15:08:48.425Z,24.98
2024-03-06T15:13:50.123Z,26.58
2024-03-06T15:18:56.084Z,27.15
2024-03-06T15:23:58.774Z,27.63
2024-03-06T15:29:00.944Z,26.88
2024-03-06T15:34:02.813Z,29.17
2024-03-06T15:39:07.587Z,28.17
2024-03-06T15:44:09.502Z,27.50
2024-03-06T15:49:22.042Z,28.05
2024-03-06T15:54:23.720Z,26.08
2024-03-06T15:59:25.478Z,27.30
2024-03-06T16:04:27.066Z,31.63
2024-03-06T16:09:28.776Z,28.58
2024-03-06T16:14:30.391Z,38.65
2024-03-06T16:19:38.220Z,29.85
2024-03-06T16:24:44.010Z,28.23
2024-03-06T16:29:45.676Z,27.48
2024-03-06T16:34:47.279Z,26.70
2024-03-06T16:39:50.986Z,29.10
2024-03-06T16:44:52.837Z,29.00
2024-03-06T16:49:54.539Z,30.20
2024-03-06T16:54:56.138Z,33.72
2024-03-06T16:59:57.878Z,34.40
2024-03-06T17:04:59.513Z,32.63
2024-03-06T17:10:01.630Z,31.85
2024-03-06T17:15:03.618Z,32.10
2024-03-06T17:20:06.750Z,32.95
2024-03-06T17:25:08.919Z,36.20
2024-03-06T17:30:10.894Z,34.72
2024-03-06T17:35:12.743Z,34.25
2024-03-06T17:40:15.247Z,34.60
2024-03-06T17:45:17.274Z,39.40
2024-03-06T17:50:19.233Z,39.08
2024-03-06T17:55:21.174Z,40.17
2024-03-06T18:00:23.259Z,49.58
2024-03-06T18:05:24.901Z,45.00
2024-03-06T18:10:26.503Z,42.95
2024-03-06T18:15:28.157Z,41.45
2024-03-06T18:20:30.778Z,45.22
2024-03-06T18:25:33.022Z,45.03
2024-03-06T18:30:35.064Z,45.75
2024-03-06T18:35:37.032Z,46.70
2024-03-06T18:40:38.917Z,51.97
2024-03-06T18:45:41.000Z,47.20
2024-03-06T18:50:42.842Z,48.90
2024-03-06T18:55:44.477Z,51.10
2024-03-06T19:00:46.050Z,52.50
2024-03-06T19:05:48.730Z,50.83
2024-03-06T19:10:52.007Z,50.22
2024-03-06T19:15:54.025Z,51.70
2024-03-06T19:20:55.715Z,52.15
2024-03-06T19:25:57.550Z,50.25
2024-03-06T19:31:01.122Z,47.00
2024-03-06T19:36:03.362Z,47.65
2024-03-06T19:41:05.016Z,47.47
2024-03-06T19:46:07.050Z,49.15
2024-03-06T19:51:09.218Z,52.30
2024-03-06T19:56:11.598Z,49.55
2024-03-06T20:01:13.316Z,50.10
2024-03-06T20:06:14.882Z,45.40
2024-03-06T20:11:17.564Z,48.70
2024-03-06T20:16:19.249Z,50.55
2024-03-06T20:21:22.255Z,50.10
2024-03-06T20:27:27.523Z,60.95
2024-03-06T20:32:32.338Z,57.55
2024-03-06T20:37:33.987Z,47.25
2024-03-06T20:42:35.635Z,45.22
2024-03-06T20:47:38.042Z,48.88
2024-03-06T20:52:39.716Z,49.72
2024-03-06T20:57:41.335Z,48.53
2024-03-06T21:02:42.965Z,46.33
2024-03-06T21:07:44.549Z,46.47
2024-03-06T21:12:48.874Z,44.80
2024-03-06T21:17:50.706Z,47.15
2024-03-06T21:22:52.258Z,45.35
2024-03-06T21:27:54.817Z,47.45
2024-03-06T21:32:56.495Z,46.72
2024-03-06T21:37:58.107Z,43.10
2024-03-06T21:42:59.670Z,45.92
2024-03-06T21:48:01.327Z,47.72
2024-03-06T21:53:03.118Z,45.22
2024-03-06T21:58:04.731Z,46.85
2024-03-06T22:03:06.530Z,46.38
2024-03-06T22:08:09.890Z,46.20
2024-03-06T22:13:11.729Z,42.83
2024-03-06T22:18:13.450Z,46.80
2024-03-06T22:23:15.078Z,48.25
2024-03-06T22:28:16.619Z,43.55
2024-03-06T22:33:21.405Z,44.80
2024-03-06T22:38:23.097Z,41.90
2024-03-06T22:43:24.828Z,46.72
2024-03-06T22:48:26.391Z,45.03
2024-03-06T22:53:27.976Z,46.10
2024-03-06T22:58:29.750Z,46.58
2024-03-06T23:03:31.284Z,50.65
2024-03-06T23:08:32.831Z,45.58
2024-03-06T23:13:34.370Z,46.72
2024-03-06T23:18:35.974Z,44.00
2024-03-06T23:23:37.640Z,50.83
2024-03-06T23:28:39.225Z,54.67
2024-03-06T23:33:40.769Z,57.10
2024-03-06T23:38:42.411Z,58.03
2024-03-06T23:43:43.967Z,58.88
2024-03-06T23:48:45.585Z,59.20
2024-03-06T23:53:47.352Z,59.92
2024-03-06T23:58:49.314Z,65.53
